Terminal Aerodrome Forecast
Issued by NWS La Crosse, WI

Home | Current Version | Previous Version | Text Only | Print | Product List | Glossary On
Versions: 1 2 3 4 5 6 7 8 9 10 11 12 13 14 15 16 17 18 19 20 21 22 23 24 25 26 27 28
000
FTUS43 KARX 300520
TAFRST
TAF
KRST 300520Z 3006/3106 29005KT P6SM SCT080
      TEMPO 3010/3012 5SM BR
     FM301500 33006KT P6SM SCT050
     FM302000 33007KT P6SM VCSH BKN050
     FM310200 29004KT P6SM SCT050=

USA.gov is the U.S. government's official web portal to all federal, state and local government web resources and services.